Time;durP1;ratioP1;P1;durP2;ratioP2;P2;SDS_P1;SDS_P2;PMS_P1;PMS_P2;Temp;Humidity;BMP_temperature;BMP_pressure;BME280_temperature;BME280_humidity;BME280_pressure;Samples;Min_cycle;Max_cycle;Signal;HPM_P1;HPM_P2
2023/03/02 00:01:37;;;;;;;28.88;12.77;;;;;;;-0.41;100.00;98951.63;4974851;28;20101;-79
2023/03/02 00:04:04;;;;;;;27.70;13.77;;;;;;;-0.43;100.00;98945.59;4968789;28;20380;-79
2023/03/02 00:06:31;;;;;;;29.92;13.20;;;;;;;-0.53;100.00;98937.53;4972503;28;20031;-80
2023/03/02 00:09:01;;;;;;;35.85;14.90;;;;;;;-0.46;100.00;98943.19;4971633;28;20468;-79
2023/03/02 00:11:29;;;;;;;30.80;14.77;;;;;;;-0.52;100.00;98944.56;4973285;28;20077;-79
2023/03/02 00:13:54;;;;;;;35.30;15.18;;;;;;;-0.60;100.00;98941.72;4973127;28;20057;-79
2023/03/02 00:16:20;;;;;;;31.55;14.55;;;;;;;-0.60;100.00;98943.50;4972576;28;20046;-79
2023/03/02 00:18:45;;;;;;;33.97;14.68;;;;;;;-0.69;100.00;98938.00;4975135;28;20023;-79
2023/03/02 00:21:10;;;;;;;34.90;14.88;;;;;;;-0.81;100.00;98917.78;4973039;28;20022;-81
2023/03/02 00:23:37;;;;;;;34.60;14.38;;;;;;;-0.68;100.00;98939.69;4973221;28;20019;-79
2023/03/02 00:26:03;;;;;;;31.55;14.63;;;;;;;-0.88;100.00;98916.59;4989338;28;20030;-79
2023/03/02 00:28:29;;;;;;;33.15;14.68;;;;;;;-0.78;100.00;98944.09;4972716;28;20019;-79
2023/03/02 00:30:54;;;;;;;33.85;14.15;;;;;;;-0.89;100.00;98938.84;4959669;28;20049;-79
2023/03/02 00:33:19;;;;;;;33.05;13.25;;;;;;;-1.27;100.00;98884.41;4958952;28;20035;-79
2023/03/02 00:35:46;;;;;;;36.90;15.23;;;;;;;-0.89;100.00;98944.16;4973167;28;20019;-79
2023/03/02 00:38:11;;;;;;;33.83;14.13;;;;;;;-1.22;100.00;98892.00;4967939;28;20443;-78
2023/03/02 00:40:37;;;;;;;32.58;14.60;;;;;;;-1.08;100.00;98917.41;4985144;28;20022;-79
2023/03/02 00:43:03;;;;;;;38.30;15.45;;;;;;;-0.97;100.00;98941.25;4992844;28;20033;-79
2023/03/02 00:45:28;;;;;;;33.88;15.27;;;;;;;-1.13;100.00;98923.97;4987461;28;20026;-78
2023/03/02 00:47:53;;;;;;;35.67;15.43;;;;;;;-1.13;100.00;98925.75;4981800;28;20034;-78
2023/03/02 00:50:19;;;;;;;33.22;15.18;;;;;;;-1.03;100.00;98941.78;4977463;28;20101;-79
2023/03/02 00:52:44;;;;;;;33.90;14.73;;;;;;;-1.11;100.00;98914.03;5003537;28;20090;-78
2023/03/02 00:55:09;;;;;;;39.92;15.20;;;;;;;-1.01;100.00;98934.53;4986576;28;20057;-79
2023/03/02 00:57:35;;;;;;;37.17;15.32;;;;;;;-1.11;100.00;98922.00;4987025;28;20047;-78
2023/03/02 01:00:00;;;;;;;32.03;14.70;;;;;;;-1.23;100.00;98912.41;4986348;28;20049;-78
2023/03/02 01:02:26;;;;;;;38.03;15.52;;;;;;;-1.16;100.00;98920.69;4985515;28;20023;-79
2023/03/02 01:04:54;;;;;;;36.25;15.45;;;;;;;-0.96;100.00;98929.69;4986652;28;20034;-78
2023/03/02 01:07:21;;;;;;;31.45;12.75;;;;;;;-0.95;100.00;98929.53;4986624;28;20028;-80
2023/03/02 01:09:47;;;;;;;31.83;13.95;;;;;;;-0.99;100.00;98925.47;4975168;28;20027;-79
2023/03/02 01:12:13;;;;;;;37.03;15.77;;;;;;;-1.16;100.00;98900.28;4972372;28;20022;-78
2023/03/02 01:14:41;;;;;;;31.85;15.20;;;;;;;-1.07;100.00;98924.41;4971304;28;20440;-79
2023/03/02 01:17:08;;;;;;;29.50;12.87;;;;;;;-1.15;100.00;98933.03;4981563;28;20050;-78
2023/03/02 01:19:33;;;;;;;38.95;15.88;;;;;;;-1.31;100.00;98896.28;4967927;28;20493;-78
2023/03/02 01:21:58;;;;;;;38.38;16.17;;;;;;;-1.29;100.00;98910.25;4961832;28;20027;-78
2023/03/02 01:24:24;;;;;;;36.38;14.35;;;;;;;-1.44;100.00;98869.03;4973891;28;20031;-78
2023/03/02 01:26:50;;;;;;;36.03;15.40;;;;;;;-1.56;100.00;98847.84;4974701;28;20029;-78
2023/03/02 01:29:15;;;;;;;39.60;15.00;;;;;;;-1.16;100.00;98913.56;4984610;28;20069;-78
2023/03/02 01:31:40;;;;;;;31.27;14.52;;;;;;;-1.21;100.00;98907.78;4971572;28;20076;-78
2023/03/02 01:34:06;;;;;;;38.70;15.65;;;;;;;-1.44;100.00;98856.63;4974391;28;20022;-78
2023/03/02 01:36:31;;;;;;;35.58;14.68;;;;;;;-1.25;100.00;98889.63;4974447;28;20026;-78
2023/03/02 01:38:56;;;;;;;39.70;15.55;;;;;;;-1.22;100.00;98900.81;4974218;28;20499;-78
2023/03/02 01:41:25;;;;;;;35.63;15.82;;;;;;;-1.23;100.00;98903.56;4990377;28;20118;-78
2023/03/02 01:43:50;;;;;;;33.08;13.07;;;;;;;-1.34;100.00;98904.47;4983188;28;20511;-78
2023/03/02 01:46:34;;;;;;;37.67;14.48;;;;;;;-1.45;100.00;98884.13;4991734;28;20070;-78
2023/03/02 01:49:03;;;;;;;40.28;14.90;;;;;;;-1.42;100.00;98894.47;4975310;28;20034;-78
2023/03/02 01:51:33;;;;;;;25.17;11.07;;;;;;;-1.37;100.00;98894.09;4974796;28;20035;-77
2023/03/02 01:54:21;;;;;;;39.17;15.70;;;;;;;-1.53;100.00;98875.09;4990330;28;20068;-78
2023/03/02 01:56:48;;;;;;;39.33;16.65;;;;;;;-1.49;100.00;98876.53;4974029;28;20030;-78
2023/03/02 01:59:18;;;;;;;34.60;15.20;;;;;;;-1.46;100.00;98887.75;4974084;28;20019;-78
2023/03/02 02:01:46;;;;;;;37.05;15.43;;;;;;;-1.55;100.00;98877.88;4969623;28;20029;-77
2023/03/02 02:04:13;;;;;;;37.78;15.70;;;;;;;-1.64;100.00;98873.31;4979708;28;20035;-78
2023/03/02 02:06:54;;;;;;;41.00;16.90;;;;;;;-1.65;100.00;98863.66;4957246;28;20058;-78
2023/03/02 02:09:22;;;;;;;39.30;15.82;;;;;;;-1.59;100.00;98873.78;4968463;28;20023;-77
2023/03/02 02:11:48;;;;;;;37.20;15.97;;;;;;;-1.70;100.00;98858.75;4974334;28;20022;-78
2023/03/02 02:14:13;;;;;;;35.92;15.90;;;;;;;-1.64;100.00;98878.63;4974291;28;20439;-77
2023/03/02 02:16:39;;;;;;;37.38;15.45;;;;;;;-1.73;100.00;98861.63;4973578;28;20540;-78
2023/03/02 02:19:17;;;;;;;39.28;16.60;;;;;;;-1.84;100.00;98854.53;4979642;28;20038;-78
2023/03/02 02:21:42;;;;;;;38.10;15.70;;;;;;;-2.06;100.00;98831.56;4973721;28;20030;-78
2023/03/02 02:24:24;;;;;;;36.78;16.42;;;;;;;-1.70;100.00;98879.09;4990494;28;20026;-78
2023/03/02 02:26:55;;;;;;;36.10;14.63;;;;;;;-1.78;100.00;98877.09;4973995;28;20533;-78
2023/03/02 02:29:29;;;;;;;36.33;15.35;;;;;;;-1.87;100.00;98856.59;4984609;28;20007;-80
2023/03/02 02:32:22;;;;;;;43.70;16.48;;;;;;;-1.81;100.00;98869.38;5015248;23;20018;-71
2023/03/02 02:34:55;;;;;;;39.42;16.25;;;;;;;-1.77;100.00;98868.16;4973171;28;20505;-69
2023/03/02 02:37:56;;;;;;;42.97;16.33;;;;;;;-1.73;100.00;98858.13;4963371;28;20443;-69
2023/03/02 02:40:37;;;;;;;36.47;15.38;;;;;;;-1.77;100.00;98863.69;4970872;28;20489;-69
2023/03/02 02:43:03;;;;;;;40.38;16.15;;;;;;;-1.79;100.00;98859.47;4971371;28;20113;-69
2023/03/02 02:45:28;;;;;;;40.60;17.02;;;;;;;-1.76;100.00;98856.56;4984872;28;20437;-69
2023/03/02 02:47:54;;;;;;;39.92;15.30;;;;;;;-1.73;100.00;98853.66;4962326;28;20031;-70
2023/03/02 02:50:28;;;;;;;35.05;15.60;;;;;;;-1.76;100.00;98848.63;4973097;28;20027;-69
2023/03/02 02:53:02;;;;;;;32.90;15.07;;;;;;;-1.77;100.00;98855.75;4986259;28;20091;-70
2023/03/02 02:55:28;;;;;;;38.00;15.73;;;;;;;-1.77;100.00;98853.09;4957901;28;20118;-69
2023/03/02 02:57:56;;;;;;;36.25;15.45;;;;;;;-1.80;100.00;98857.81;4977672;28;20173;-69
2023/03/02 03:00:23;;;;;;;38.08;16.58;;;;;;;-1.77;100.00;98852.25;4983735;28;20474;-70
2023/03/02 03:03:06;;;;;;;33.45;14.77;;;;;;;-1.78;100.00;98856.72;4968616;28;20034;-69
2023/03/02 03:05:31;;;;;;;40.10;16.00;;;;;;;-1.78;100.00;98861.19;4963067;28;20080;-69
2023/03/02 03:08:09;;;;;;;39.75;17.35;;;;;;;-1.77;100.00;98861.03;4984031;28;20549;-69
2023/03/02 03:10:39;;;;;;;40.85;16.27;;;;;;;-1.84;100.00;98867.81;4960344;28;20445;-69
2023/03/02 03:13:10;;;;;;;38.67;16.38;;;;;;;-1.85;100.00;98857.34;5000015;28;20055;-69
2023/03/02 03:15:35;;;;;;;38.28;15.88;;;;;;;-1.91;100.00;98863.97;4962334;28;20034;-69
2023/03/02 03:18:00;;;;;;;43.58;17.50;;;;;;;-1.90;100.00;98856.88;4963213;28;20041;-69
2023/03/02 03:20:27;;;;;;;38.25;16.58;;;;;;;-1.94;100.00;98852.75;4958097;28;20051;-69
2023/03/02 03:22:52;;;;;;;38.25;15.93;;;;;;;-1.99;100.00;98853.97;4968469;28;20027;-69
2023/03/02 03:25:20;;;;;;;42.13;17.02;;;;;;;-2.00;100.00;98860.22;4963141;28;20045;-69
2023/03/02 03:27:45;;;;;;;43.58;17.95;;;;;;;-2.07;100.00;98855.53;4973491;28;20033;-69
2023/03/02 03:30:12;;;;;;;38.70;15.75;;;;;;;-2.12;100.00;98850.63;4959254;28;20027;-70
2023/03/02 03:32:38;;;;;;;36.30;15.73;;;;;;;-2.18;100.00;98852.91;4987196;28;20387;-69
2023/03/02 03:35:07;;;;;;;35.38;16.52;;;;;;;-2.18;100.00;98859.03;4967429;28;20142;-72
2023/03/02 03:37:34;;;;;;;44.47;18.27;;;;;;;-2.17;100.00;98866.06;4960069;28;20031;-72
2023/03/02 03:39:59;;;;;;;37.53;15.80;;;;;;;-2.15;100.00;98869.41;4965499;28;20031;-72
2023/03/02 03:42:24;;;;;;;39.53;16.67;;;;;;;-2.13;100.00;98861.34;4981717;28;20030;-72
2023/03/02 03:44:51;;;;;;;39.67;16.55;;;;;;;-2.07;100.00;98864.38;4962419;28;20055;-72
2023/03/02 03:47:16;;;;;;;41.88;16.30;;;;;;;-2.03;100.00;98862.28;4969097;28;20553;-72
2023/03/02 03:49:42;;;;;;;43.22;17.02;;;;;;;-2.10;100.00;98867.22;4965301;28;20135;-72
2023/03/02 03:52:07;;;;;;;40.20;16.23;;;;;;;-2.15;100.00;98864.09;4989806;28;20023;-72
2023/03/02 03:54:32;;;;;;;40.22;17.02;;;;;;;-2.08;100.00;98856.53;4964481;28;20023;-73
2023/03/02 03:56:58;;;;;;;41.05;16.33;;;;;;;-2.14;100.00;98863.16;5009039;28;20046;-73
2023/03/02 03:59:24;;;;;;;38.97;16.60;;;;;;;-2.17;100.00;98855.44;4970903;28;20109;-72
2023/03/02 04:01:54;;;;;;;38.53;15.40;;;;;;;-2.27;100.00;98865.94;4962327;28;20137;-72
2023/03/02 04:04:23;;;;;;;;;;;;;;;-2.29;100.00;98877.59;4978725;28;20113;-73
2023/03/02 04:06:50;;;;;;;41.53;15.75;;;;;;;-2.28;100.00;98866.03;4975102;28;20354;-72
2023/03/02 04:09:19;;;;;;;42.83;16.77;;;;;;;-2.30;100.00;98865.34;4961906;28;20034;-70
2023/03/02 04:11:48;;;;;;;40.67;17.23;;;;;;;-2.29;100.00;98864.34;4966209;28;20030;-70
2023/03/02 04:14:14;;;;;;;33.00;12.70;;;;;;;-2.33;100.00;98857.59;4974892;28;20023;-70
2023/03/02 04:16:41;;;;;;;41.33;17.15;;;;;;;-2.32;100.00;98867.25;4973370;28;20023;-70
2023/03/02 04:19:09;;;;;;;41.42;16.23;;;;;;;-2.33;100.00;98871.72;4956416;28;20023;-73
2023/03/02 04:21:40;;;;;;;36.30;16.35;;;;;;;-2.58;100.00;98834.84;4959995;28;20431;-72
2023/03/02 04:24:07;;;;;;;38.33;16.17;;;;;;;-2.42;100.00;98861.81;4966945;28;20118;-72
2023/03/02 04:26:33;;;;;;;43.20;17.58;;;;;;;-2.44;100.00;98866.38;4972505;28;20500;-72
2023/03/02 04:29:00;;;;;;;35.17;16.35;;;;;;;-2.46;100.00;98871.00;4959942;28;20081;-72
2023/03/02 04:31:25;;;;;;;43.80;15.82;;;;;;;-2.45;100.00;98873.50;4960185;28;20113;-70
2023/03/02 04:33:51;;;;;;;41.38;17.20;;;;;;;-2.51;100.00;98870.50;4965456;28;20118;-70
2023/03/02 04:36:18;;;;;;;38.60;16.88;;;;;;;-2.52;100.00;98868.78;4957816;28;20080;-70
2023/03/02 04:38:44;;;;;;;40.28;17.30;;;;;;;-2.55;100.00;98871.69;4959542;28;20129;-70
2023/03/02 04:41:09;;;;;;;36.80;16.35;;;;;;;-2.41;100.00;98863.53;4978019;28;20023;-70
2023/03/02 04:43:36;;;;;;;40.15;16.02;;;;;;;-2.46;100.00;98871.81;4980300;28;20019;-70
2023/03/02 04:46:01;;;;;;;38.67;16.50;;;;;;;-2.47;100.00;98875.41;4957015;28;20455;-70
2023/03/02 04:48:27;;;;;;;36.30;16.70;;;;;;;-2.49;100.00;98868.56;4968394;28;20033;-70
2023/03/02 04:50:53;;;;;;;37.90;16.40;;;;;;;-2.45;100.00;98868.19;4957129;28;20042;-70
2023/03/02 04:53:18;;;;;;;36.33;15.50;;;;;;;-2.42;100.00;98867.13;4969468;28;20493;-70
2023/03/02 04:55:43;;;;;;;48.90;17.95;;;;;;;-2.37;100.00;98864.13;4961891;28;20019;-70
2023/03/02 04:58:09;;;;;;;44.15;16.85;;;;;;;-2.45;100.00;98876.16;4961985;28;20023;-70
2023/03/02 05:00:34;;;;;;;41.47;16.08;;;;;;;-2.47;100.00;98871.94;4964251;28;20031;-69
2023/03/02 05:03:01;;;;;;;43.42;17.58;;;;;;;-2.53;100.00;98865.31;4964667;28;20032;-69
2023/03/02 05:05:27;;;;;;;38.15;15.88;;;;;;;-2.54;100.00;98866.28;4962378;28;20038;-69
2023/03/02 05:07:53;;;;;;;41.72;15.98;;;;;;;-2.53;100.00;98867.97;4981071;28;20030;-69
2023/03/02 05:10:20;;;;;;;40.53;16.80;;;;;;;-2.56;100.00;98865.56;4965013;28;20743;-69
2023/03/02 05:12:57;;;;;;;44.22;17.88;;;;;;;-2.53;100.00;98865.31;4995077;28;20027;-69
2023/03/02 05:15:34;;;;;;;41.05;15.68;;;;;;;-2.60;100.00;98869.38;4955822;28;20163;-73
2023/03/02 05:18:00;;;;;;;43.85;16.73;;;;;;;-2.59;100.00;98860.50;4959143;28;20027;-73
2023/03/02 05:20:29;;;;;;;45.35;16.45;;;;;;;-2.65;100.00;98863.59;4954394;28;20033;-72
2023/03/02 05:22:58;;;;;;;43.13;17.08;;;;;;;-2.70;100.00;98857.81;4979202;28;20030;-73
2023/03/02 05:25:24;;;;;;;45.08;15.02;;;;;;;-2.68;100.00;98863.84;4961661;28;20039;-73
2023/03/02 05:27:51;;;;;;;41.42;16.20;;;;;;;-2.73;100.00;98863.34;4956661;28;20026;-73
2023/03/02 05:30:18;;;;;;;39.70;16.95;;;;;;;-2.76;100.00;98863.59;5003011;28;20027;-73
2023/03/02 05:32:43;;;;;;;36.58;15.43;;;;;;;-2.77;100.00;98861.91;4966397;28;20058;-73
2023/03/02 05:35:09;;;;;;;40.10;16.25;;;;;;;-2.73;100.00;98863.34;4961205;28;20141;-73
2023/03/02 05:37:34;;;;;;;39.90;16.15;;;;;;;-2.68;100.00;98856.75;4962356;28;20046;-73
2023/03/02 05:40:00;;;;;;;41.05;16.20;;;;;;;-2.76;100.00;98858.31;4965743;28;20031;-74
2023/03/02 05:42:25;;;;;;;43.28;16.55;;;;;;;-2.74;100.00;98854.56;4962117;28;20038;-74
2023/03/02 05:44:51;;;;;;;40.50;17.80;;;;;;;-2.58;100.00;98867.47;4983477;28;20047;-73
2023/03/02 05:47:16;;;;;;;45.45;16.75;;;;;;;-2.64;100.00;98860.00;4968557;28;20466;-73
2023/03/02 05:49:41;;;;;;;42.08;16.45;;;;;;;-2.70;100.00;98865.75;4968503;28;20033;-73
2023/03/02 05:52:07;;;;;;;47.58;17.83;;;;;;;-2.69;100.00;98867.47;4957329;28;20038;-73
2023/03/02 05:54:32;;;;;;;41.65;17.20;;;;;;;-2.74;100.00;98872.28;4980992;28;20055;-74
2023/03/02 05:56:58;;;;;;;39.88;16.13;;;;;;;-2.86;100.00;98860.78;4964615;28;20037;-73
2023/03/02 05:59:23;;;;;;;42.08;16.30;;;;;;;-2.90;100.00;98876.09;4964599;28;20478;-73
2023/03/02 06:01:49;;;;;;;37.95;15.45;;;;;;;-2.95;100.00;98875.59;4966760;28;20031;-69
2023/03/02 06:04:15;;;;;;;44.42;18.15;;;;;;;-2.95;100.00;98872.09;4959502;28;20470;-69
2023/03/02 06:06:42;;;;;;;35.90;15.93;;;;;;;-2.86;100.00;98879.34;5009324;28;20093;-69
2023/03/02 06:09:07;;;;;;;42.25;17.25;;;;;;;-2.74;100.00;98878.41;4974440;28;20117;-69
2023/03/02 06:11:33;;;;;;;44.58;16.42;;;;;;;-2.70;100.00;98882.50;4967147;28;20054;-69
2023/03/02 06:13:58;;;;;;;42.80;16.95;;;;;;;-2.52;100.00;98888.19;4971129;28;20114;-69
2023/03/02 06:16:24;;;;;;;34.42;15.27;;;;;;;-2.43;100.00;98889.28;4969223;28;20085;-70
2023/03/02 06:18:49;;;;;;;41.35;16.77;;;;;;;-2.33;100.00;98892.03;4955442;28;20062;-70
2023/03/02 06:21:16;;;;;;;40.83;16.63;;;;;;;-2.29;100.00;98896.16;4959837;28;20108;-70
2023/03/02 06:23:42;;;;;;;50.85;18.08;;;;;;;-2.18;100.00;98885.53;4968450;28;20031;-70
2023/03/02 06:28:52;;;;;;;57.75;22.17;;;;;;;-1.94;100.00;98892.53;4994122;23;20403;-75
2023/03/02 06:31:17;;;;;;;51.20;19.33;;;;;;;-1.76;100.00;98891.06;4969452;28;20039;-73
2023/03/02 06:33:42;;;;;;;43.03;17.92;;;;;;;-1.63;100.00;98893.56;4988716;28;20026;-74
2023/03/02 06:36:11;;;;;;;39.10;16.35;;;;;;;-1.52;100.00;98882.09;4969608;28;20535;-74
2023/03/02 06:38:36;;;;;;;41.28;16.83;;;;;;;-1.26;100.00;98878.13;4969723;28;20062;-73
2023/03/02 06:41:01;;;;;;;36.58;15.90;;;;;;;-0.38;100.00;98884.91;4964092;28;20124;-74
2023/03/02 06:43:27;;;;;;;43.03;16.05;;;;;;;0.36;100.00;98857.16;4965346;28;20038;-74
2023/03/02 06:45:54;;;;;;;36.58;15.48;;;;;;;1.34;100.00;98872.19;4973171;28;20027;-80
2023/03/02 06:48:20;;;;;;;29.90;14.52;;;;;;;1.66;100.00;98879.00;4972985;28;20023;-81
2023/03/02 06:50:46;;;;;;;34.33;15.20;;;;;;;1.74;100.00;98881.75;4971764;28;20058;-81
2023/03/02 06:53:11;;;;;;;31.98;14.90;;;;;;;1.72;100.00;98881.06;4974565;28;20828;-79
2023/03/02 06:55:36;;;;;;;34.63;15.10;;;;;;;2.33;100.00;98887.69;4974038;28;20022;-77
2023/03/02 06:58:02;;;;;;;29.80;14.35;;;;;;;2.76;100.00;98887.00;4973799;28;20037;-75
2023/03/02 07:00:27;;;;;;;29.02;13.65;;;;;;;3.57;100.00;98874.50;5031732;28;20955;-79
2023/03/02 07:02:55;;;;;;;30.48;14.15;;;;;;;4.16;100.00;98878.16;4986132;28;20038;-79
2023/03/02 07:05:22;;;;;;;32.38;13.55;;;;;;;4.98;100.00;98879.25;4989204;28;20034;-78
2023/03/02 07:07:47;;;;;;;33.03;13.68;;;;;;;5.47;100.00;98876.53;4972279;28;20060;-78
2023/03/02 07:10:12;;;;;;;29.30;14.07;;;;;;;5.88;100.00;98873.81;4979504;28;20106;-79
2023/03/02 07:12:40;;;;;;;32.45;14.65;;;;;;;6.34;100.00;98882.09;4967988;28;20114;-78
2023/03/02 07:15:11;;;;;;;28.80;13.88;;;;;;;7.12;98.81;98872.22;4971740;28;20034;-80
2023/03/02 07:17:37;;;;;;;30.05;14.73;;;;;;;7.55;93.62;98874.41;4972914;28;20488;-77
2023/03/02 07:20:05;;;;;;;30.58;14.57;;;;;;;8.22;84.58;98876.22;4964185;28;20027;-75
2023/03/02 07:22:30;;;;;;;29.77;15.75;;;;;;;8.71;79.45;98875.66;4966619;28;20170;-77
2023/03/02 07:24:55;;;;;;;35.08;15.77;;;;;;;8.50;78.85;98853.00;4972781;28;20038;-79
2023/03/02 07:27:21;;;;;;;30.38;15.52;;;;;;;9.46;73.40;98866.25;4966323;28;20042;-76
2023/03/02 07:29:46;;;;;;;31.83;16.60;;;;;;;9.93;69.35;98871.97;4962615;28;20023;-77
2023/03/02 07:32:12;;;;;;;29.27;15.07;;;;;;;10.27;67.86;98877.44;4964699;28;20118;-76
2023/03/02 07:34:37;;;;;;;27.77;15.68;;;;;;;11.52;64.07;98874.47;4973432;28;20030;-78
2023/03/02 07:37:02;;;;;;;34.60;16.23;;;;;;;11.38;61.92;98877.19;4978474;28;20100;-75
2023/03/02 07:39:28;;;;;;;37.45;18.13;;;;;;;10.88;61.96;98865.00;4971926;28;20034;-74
2023/03/02 07:41:57;;;;;;;33.20;15.40;;;;;;;11.58;61.44;98866.38;4966838;28;20370;-74
2023/03/02 07:44:22;;;;;;;34.38;16.70;;;;;;;11.88;59.98;98874.09;4967348;28;20018;-74
2023/03/02 07:46:47;;;;;;;33.55;16.50;;;;;;;13.22;55.75;98886.16;4975969;28;20058;-73
2023/03/02 07:49:12;;;;;;;24.48;14.63;;;;;;;13.67;53.78;98879.81;4966685;28;20107;-73
2023/03/02 07:51:38;;;;;;;24.35;13.93;;;;;;;14.27;51.88;98871.91;4966980;28;20132;-78
2023/03/02 07:54:03;;;;;;;25.02;14.70;;;;;;;14.45;50.42;98890.16;4969281;28;20503;-77
2023/03/02 07:56:29;;;;;;;27.95;15.43;;;;;;;15.37;48.66;98876.41;4975501;28;20087;-77
2023/03/02 07:58:55;;;;;;;24.83;13.73;;;;;;;16.88;45.78;98864.13;4967099;28;20058;-75
2023/03/02 08:01:20;;;;;;;20.55;13.25;;;;;;;17.72;44.71;98876.03;4966902;28;20073;-74
2023/03/02 08:03:45;;;;;;;23.17;14.38;;;;;;;18.06;42.84;98869.78;4967036;28;20491;-75
2023/03/02 08:06:11;;;;;;;28.08;14.98;;;;;;;19.22;40.00;98872.38;4974345;28;20073;-78
2023/03/02 08:08:36;;;;;;;24.92;14.63;;;;;;;19.18;40.55;98871.25;4960252;28;20061;-75
2023/03/02 08:11:06;;;;;;;22.40;13.93;;;;;;;19.76;39.66;98870.75;4969334;28;20050;-76
2023/03/02 08:13:32;;;;;;;22.17;14.65;;;;;;;20.88;38.35;98870.63;4964520;28;20499;-75
2023/03/02 08:16:01;;;;;;;20.67;14.60;;;;;;;20.65;37.92;98872.72;4968165;28;20148;-72
2023/03/02 08:18:27;;;;;;;25.88;14.73;;;;;;;19.80;38.05;98863.63;4966935;28;20037;-77
2023/03/02 08:20:53;;;;;;;22.15;14.73;;;;;;;20.62;36.52;98867.78;4963435;28;20027;-76
2023/03/02 08:23:18;;;;;;;20.60;14.60;;;;;;;19.99;37.67;98861.28;4966023;28;20058;-75
2023/03/02 08:25:44;;;;;;;29.08;15.57;;;;;;;20.36;37.21;98845.63;4956126;28;20172;-77
2023/03/02 08:28:09;;;;;;;21.58;14.30;;;;;;;20.85;36.71;98865.66;5009693;28;20477;-75
2023/03/02 08:30:34;;;;;;;24.30;14.02;;;;;;;20.48;36.44;98861.06;4973984;28;20109;-76
2023/03/02 08:33:00;;;;;;;20.52;14.27;;;;;;;21.20;35.89;98857.53;4990535;22;20055;-76
2023/03/02 08:35:25;;;;;;;19.95;13.93;;;;;;;21.39;35.98;98855.13;4970146;28;20035;-81
2023/03/02 08:37:50;;;;;;;20.30;13.93;;;;;;;20.98;36.28;98849.47;4959045;28;20038;-76
2023/03/02 08:40:16;;;;;;;21.98;14.60;;;;;;;21.42;35.56;98831.72;4951893;28;20380;-76
2023/03/02 08:42:41;;;;;;;20.58;13.57;;;;;;;21.35;35.28;98820.13;4948022;28;20027;-80
2023/03/02 08:45:07;;;;;;;20.33;13.88;;;;;;;20.68;36.44;98833.72;4966999;28;20146;-79
2023/03/02 08:47:32;;;;;;;19.52;14.93;;;;;;;20.78;36.31;98832.94;4926979;28;20035;-78
2023/03/02 08:49:58;;;;;;;20.55;13.93;;;;;;;21.43;35.33;98833.38;4931406;28;20512;-74
2023/03/02 08:52:23;;;;;;;24.48;13.93;;;;;;;23.86;32.97;98825.59;4924722;28;20023;-79
2023/03/02 08:54:48;;;;;;;19.05;13.05;;;;;;;22.97;32.79;98793.38;4949910;28;20031;-78
2023/03/02 08:57:14;;;;;;;18.55;13.35;;;;;;;22.53;32.92;98813.44;4931099;28;20042;-75
2023/03/02 08:59:39;;;;;;;18.50;13.70;;;;;;;22.41;33.38;98817.59;4932069;28;20020;-78
2023/03/02 09:02:04;;;;;;;23.00;13.68;;;;;;;22.23;33.55;98830.06;4933577;29;20382;-76
2023/03/02 09:04:30;;;;;;;19.80;13.70;;;;;;;20.76;34.78;98808.44;4931252;29;20107;-80
2023/03/02 09:06:55;;;;;;;19.85;14.30;;;;;;;21.71;34.49;98803.66;4930356;28;20392;-82
2023/03/02 09:09:20;;;;;;;17.95;13.00;;;;;;;23.50;33.39;98787.22;5010810;28;20031;-82
2023/03/02 09:11:46;;;;;;;19.10;13.18;;;;;;;25.95;30.78;98794.38;4933745;28;20039;-81
2023/03/02 09:14:12;;;;;;;21.35;14.35;;;;;;;23.00;32.28;98816.00;4933814;28;20078;-80
2023/03/02 09:16:38;;;;;;;17.25;13.40;;;;;;;22.20;33.06;98820.41;4934052;28;20027;-77
2023/03/02 09:19:03;;;;;;;20.55;14.63;;;;;;;21.11;34.86;98817.88;4929532;28;20064;-80
2023/03/02 09:21:28;;;;;;;19.77;14.20;;;;;;;22.58;33.37;98814.50;4928178;28;20117;-80
2023/03/02 09:23:57;;;;;;;21.27;14.15;;;;;;;24.16;32.13;98802.38;4928865;29;20326;-81
2023/03/02 09:26:23;;;;;;;19.70;13.82;;;;;;;24.44;31.48;98821.97;4932523;29;20051;-78
2023/03/02 09:28:49;;;;;;;20.25;14.35;;;;;;;24.66;30.44;98805.69;4933214;29;20528;-78
2023/03/02 09:31:15;;;;;;;15.85;13.23;;;;;;;25.99;30.03;98803.72;4937893;28;20031;-78
2023/03/02 09:33:41;;;;;;;16.73;12.38;;;;;;;26.50;29.79;98813.03;4931302;28;20027;-80
2023/03/02 09:36:08;;;;;;;17.08;12.40;;;;;;;26.76;29.23;98802.25;4934177;29;20040;-78
2023/03/02 09:38:33;;;;;;;21.85;13.55;;;;;;;26.46;29.35;98803.66;4933824;29;20081;-82
2023/03/02 09:41:20;;;;;;;16.90;12.30;;;;;;;27.87;28.94;98810.25;4932727;28;20105;-80
2023/03/02 09:44:12;;;;;;;19.38;11.38;;;;;;;27.40;28.91;98812.50;4949453;28;20122;-84
2023/03/02 09:46:52;;;;;;;18.30;12.10;;;;;;;26.21;29.02;98814.13;4951916;28;20036;-84
2023/03/02 09:49:34;;;;;;;18.88;12.95;;;;;;;25.45;30.61;98823.75;4928693;29;20044;-73
2023/03/02 09:52:15;;;;;;;18.83;11.27;;;;;;;23.46;31.21;98818.47;4931997;29;20031;-75
2023/03/02 09:54:40;;;;;;;17.45;11.73;;;;;;;25.45;29.94;98804.34;4927512;28;20059;-75
2023/03/02 09:57:21;;;;;;;18.10;12.20;;;;;;;24.19;31.29;98821.16;4932671;28;20107;-79
2023/03/02 09:59:52;;;;;;;17.42;11.85;;;;;;;23.47;32.92;98814.56;4999146;28;20036;-79
2023/03/02 10:02:27;;;;;;;19.73;11.02;;;;;;;25.05;30.95;98814.88;4963834;28;20027;-77
2023/03/02 10:04:54;;;;;;;17.15;11.55;;;;;;;23.98;31.97;98808.66;4948978;28;20024;-78
2023/03/02 10:07:28;;;;;;;15.57;11.05;;;;;;;25.85;30.08;98815.91;4924828;28;20085;-76
2023/03/02 10:10:20;;;;;;;17.13;10.48;;;;;;;26.02;29.79;98811.44;4926746;28;20119;-80
2023/03/02 10:13:01;;;;;;;19.08;11.30;;;;;;;26.88;28.80;98801.69;4934585;28;20047;-80
2023/03/02 10:15:54;;;;;;;15.98;11.07;;;;;;;28.32;27.50;98808.22;4948718;28;20397;-81
2023/03/02 10:18:31;;;;;;;16.58;11.75;;;;;;;27.05;27.79;98812.16;4960526;28;20033;-80
2023/03/02 10:21:05;;;;;;;17.15;11.48;;;;;;;24.68;30.71;98817.31;4935126;28;20027;-80
2023/03/02 10:24:01;;;;;;;15.88;10.38;;;;;;;24.13;30.73;98815.94;4937697;29;20660;-82
2023/03/02 10:26:26;;;;;;;25.48;11.05;;;;;;;23.47;31.93;98825.63;4933004;29;20024;-77
2023/03/02 10:29:03;;;;;;;16.40;10.75;;;;;;;24.23;31.03;98822.22;4932892;28;20092;-87
2023/03/02 10:31:31;;;;;;;16.67;10.25;;;;;;;25.48;30.75;98821.19;4928873;28;20110;-77
2023/03/02 10:33:57;;;;;;;;;;;;;;;25.04;30.39;98825.13;4929763;28;20400;-77
2023/03/02 10:36:28;;;;;;;16.25;10.30;;;;;;;25.41;30.04;98794.97;4932491;28;19944;-81
2023/03/02 10:38:56;;;;;;;29.15;10.98;;;;;;;26.44;29.29;98783.75;4938832;28;20038;-80
2023/03/02 10:41:38;;;;;;;15.75;10.75;;;;;;;25.78;29.46;98805.16;4939838;28;20027;-79
2023/03/02 10:44:13;;;;;;;16.65;10.70;;;;;;;24.83;30.39;98823.75;4924945;28;20106;-75
2023/03/02 10:46:43;;;;;;;16.92;9.65;;;;;;;26.29;29.65;98795.13;4923978;29;20032;-75
2023/03/02 10:49:38;;;;;;;17.90;10.80;;;;;;;27.56;28.37;98808.22;4933399;29;20046;-75
2023/03/02 10:52:12;;;;;;;15.68;10.63;;;;;;;27.05;28.52;98801.06;4922340;29;20161;-75
2023/03/02 10:54:38;;;;;;;20.13;10.18;;;;;;;26.28;29.06;98787.94;4929357;29;20077;-75
2023/03/02 10:57:24;;;;;;;15.90;10.45;;;;;;;26.18;29.52;98791.75;4933020;28;20439;-76
2023/03/02 10:59:50;;;;;;;15.68;10.65;;;;;;;26.93;29.23;98782.16;4941450;28;20648;-75
2023/03/02 11:02:23;;;;;;;14.25;9.98;;;;;;;25.89;29.15;98798.38;4933092;28;20539;-75
2023/03/02 11:04:54;;;;;;;17.17;10.93;;;;;;;26.33;29.43;98787.84;4927900;28;20139;-74
2023/03/02 11:07:22;;;;;;;12.63;9.63;;;;;;;25.53;29.00;98787.03;4933768;29;20535;-81
2023/03/02 11:10:16;;;;;;;16.13;10.93;;;;;;;26.21;29.09;98775.31;4938781;29;20085;-75
2023/03/02 11:12:46;;;;;;;16.77;9.95;;;;;;;25.92;29.50;98791.41;4914878;29;20036;-75
2023/03/02 11:15:15;;;;;;;14.70;9.90;;;;;;;26.63;29.20;98780.88;4919058;28;20035;-75
2023/03/02 11:17:42;;;;;;;14.40;10.40;;;;;;;24.92;29.28;98775.75;4929963;28;20114;-75
2023/03/02 11:20:15;;;;;;;18.05;10.63;;;;;;;24.59;30.11;98777.56;4922381;29;20024;-74
2023/03/02 11:22:50;;;;;;;14.38;10.32;;;;;;;25.21;30.14;98774.00;4927430;29;20107;-74